sensor_id;sensor_type;location;lat;lon;timestamp;temperature;humidity
39665;DHT22;26679;50.872;4.332;2023-11-19T00:00:18;20.30;92.00
39665;DHT22;26679;50.872;4.332;2023-11-19T00:02:43;20.40;92.00
39665;DHT22;26679;50.872;4.332;2023-11-19T00:05:09;20.30;92.00
39665;DHT22;26679;50.872;4.332;2023-11-19T00:07:36;20.30;92.00
39665;DHT22;26679;50.872;4.332;2023-11-19T00:10:02;20.30;92.10
39665;DHT22;26679;50.872;4.332;2023-11-19T00:12:32;20.30;92.10
39665;DHT22;26679;50.872;4.332;2023-11-19T00:14:57;20.30;92.10
39665;DHT22;26679;50.872;4.332;2023-11-19T00:17:23;20.30;92.10
39665;DHT22;26679;50.872;4.332;2023-11-19T00:19:48;20.30;92.10
39665;DHT22;26679;50.872;4.332;2023-11-19T00:22:16;20.30;92.20
39665;DHT22;26679;50.872;4.332;2023-11-19T00:24:42;20.30;92.20
39665;DHT22;26679;50.872;4.332;2023-11-19T00:27:07;20.20;92.20
39665;DHT22;26679;50.872;4.332;2023-11-19T00:29:33;20.20;92.20
39665;DHT22;26679;50.872;4.332;2023-11-19T00:31:58;20.20;92.20
39665;DHT22;26679;50.872;4.332;2023-11-19T00:34:24;20.20;92.20
39665;DHT22;26679;50.872;4.332;2023-11-19T00:36:49;20.20;92.20
39665;DHT22;26679;50.872;4.332;2023-11-19T00:39:15;20.20;92.20
39665;DHT22;26679;50.872;4.332;2023-11-19T00:41:41;20.20;92.20
39665;DHT22;26679;50.872;4.332;2023-11-19T00:44:06;20.20;92.20
39665;DHT22;26679;50.872;4.332;2023-11-19T00:46:32;20.20;92.20
39665;DHT22;26679;50.872;4.332;2023-11-19T00:49:00;20.20;92.30
39665;DHT22;26679;50.872;4.332;2023-11-19T00:51:26;20.20;92.30
39665;DHT22;26679;50.872;4.332;2023-11-19T00:53:52;20.20;92.30
39665;DHT22;26679;50.872;4.332;2023-11-19T00:56:18;20.20;92.30
39665;DHT22;26679;50.872;4.332;2023-11-19T00:58:44;20.20;92.30
39665;DHT22;26679;50.872;4.332;2023-11-19T01:01:14;20.20;92.30
39665;DHT22;26679;50.872;4.332;2023-11-19T01:03:39;20.20;92.30
39665;DHT22;26679;50.872;4.332;2023-11-19T01:06:05;20.20;92.30
39665;DHT22;26679;50.872;4.332;2023-11-19T01:08:30;20.20;92.30
39665;DHT22;26679;50.872;4.332;2023-11-19T01:10:56;20.10;92.30
39665;DHT22;26679;50.872;4.332;2023-11-19T01:13:22;20.10;92.30
39665;DHT22;26679;50.872;4.332;2023-11-19T01:15:47;20.10;92.30
39665;DHT22;26679;50.872;4.332;2023-11-19T01:18:13;20.10;92.30
39665;DHT22;26679;50.872;4.332;2023-11-19T01:20:38;20.10;92.30
39665;DHT22;26679;50.872;4.332;2023-11-19T01:23:04;20.10;92.20
39665;DHT22;26679;50.872;4.332;2023-11-19T01:25:29;20.10;92.20
39665;DHT22;26679;50.872;4.332;2023-11-19T01:27:55;20.10;92.20
39665;DHT22;26679;50.872;4.332;2023-11-19T01:30:23;20.10;92.20
39665;DHT22;26679;50.872;4.332;2023-11-19T01:32:49;20.10;92.20
39665;DHT22;26679;50.872;4.332;2023-11-19T01:35:15;20.10;92.20
39665;DHT22;26679;50.872;4.332;2023-11-19T01:37:40;20.10;92.20
39665;DHT22;26679;50.872;4.332;2023-11-19T01:40:06;20.10;92.20
39665;DHT22;26679;50.872;4.332;2023-11-19T01:42:37;20.10;92.20
39665;DHT22;26679;50.872;4.332;2023-11-19T01:45:03;20.10;92.20
39665;DHT22;26679;50.872;4.332;2023-11-19T01:47:32;20.10;92.20
39665;DHT22;26679;50.872;4.332;2023-11-19T01:49:57;20.00;92.20
39665;DHT22;26679;50.872;4.332;2023-11-19T01:52:24;20.00;92.20
39665;DHT22;26679;50.872;4.332;2023-11-19T01:54:50;20.00;92.20
39665;DHT22;26679;50.872;4.332;2023-11-19T01:57:16;20.00;92.20
39665;DHT22;26679;50.872;4.332;2023-11-19T01:59:42;20.00;92.20
39665;DHT22;26679;50.872;4.332;2023-11-19T02:02:08;20.00;92.20
39665;DHT22;26679;50.872;4.332;2023-11-19T02:04:34;20.00;92.20
39665;DHT22;26679;50.872;4.332;2023-11-19T02:07:00;20.00;92.10
39665;DHT22;26679;50.872;4.332;2023-11-19T02:09:25;20.00;92.10
39665;DHT22;26679;50.872;4.332;2023-11-19T02:11:52;20.00;92.10
39665;DHT22;26679;50.872;4.332;2023-11-19T02:14:18;20.00;92.10
39665;DHT22;26679;50.872;4.332;2023-11-19T02:16:48;20.00;92.10
39665;DHT22;26679;50.872;4.332;2023-11-19T02:19:14;20.00;92.10
39665;DHT22;26679;50.872;4.332;2023-11-19T02:21:39;19.90;92.00
39665;DHT22;26679;50.872;4.332;2023-11-19T02:24:07;19.90;92.00
39665;DHT22;26679;50.872;4.332;2023-11-19T02:29:21;20.00;92.00
39665;DHT22;26679;50.872;4.332;2023-11-19T02:31:47;19.90;92.00
39665;DHT22;26679;50.872;4.332;2023-11-19T02:34:12;19.90;92.00
39665;DHT22;26679;50.872;4.332;2023-11-19T02:36:38;19.90;92.00
39665;DHT22;26679;50.872;4.332;2023-11-19T02:39:07;19.90;91.90
39665;DHT22;26679;50.872;4.332;2023-11-19T02:41:35;19.90;91.90
39665;DHT22;26679;50.872;4.332;2023-11-19T02:44:01;19.90;91.90
39665;DHT22;26679;50.872;4.332;2023-11-19T02:46:26;19.90;91.90
39665;DHT22;26679;50.872;4.332;2023-11-19T02:48:52;19.90;91.90
39665;DHT22;26679;50.872;4.332;2023-11-19T02:51:17;19.90;91.90
39665;DHT22;26679;50.872;4.332;2023-11-19T02:53:44;19.90;91.80
39665;DHT22;26679;50.872;4.332;2023-11-19T02:56:09;19.90;91.80
39665;DHT22;26679;50.872;4.332;2023-11-19T02:58:45;19.90;91.80
39665;DHT22;26679;50.872;4.332;2023-11-19T03:01:11;19.90;91.70
39665;DHT22;26679;50.872;4.332;2023-11-19T03:03:48;20.00;91.70
39665;DHT22;26679;50.872;4.332;2023-11-19T03:06:19;20.00;91.70
39665;DHT22;26679;50.872;4.332;2023-11-19T03:08:44;20.00;91.70
39665;DHT22;26679;50.872;4.332;2023-11-19T03:11:10;20.00;91.70
39665;DHT22;26679;50.872;4.332;2023-11-19T03:13:35;20.00;91.60
39665;DHT22;26679;50.872;4.332;2023-11-19T03:16:01;20.00;91.60
39665;DHT22;26679;50.872;4.332;2023-11-19T03:18:26;20.00;91.60
39665;DHT22;26679;50.872;4.332;2023-11-19T03:20:53;20.00;91.50
39665;DHT22;26679;50.872;4.332;2023-11-19T03:23:19;20.10;91.50
39665;DHT22;26679;50.872;4.332;2023-11-19T03:25:44;20.00;91.40
39665;DHT22;26679;50.872;4.332;2023-11-19T03:28:10;20.10;91.40
39665;DHT22;26679;50.872;4.332;2023-11-19T03:30:36;20.10;91.40
39665;DHT22;26679;50.872;4.332;2023-11-19T03:33:01;20.10;91.40
39665;DHT22;26679;50.872;4.332;2023-11-19T03:35:27;20.10;91.30
39665;DHT22;26679;50.872;4.332;2023-11-19T03:37:53;20.10;91.30
39665;DHT22;26679;50.872;4.332;2023-11-19T03:40:18;20.10;91.20
39665;DHT22;26679;50.872;4.332;2023-11-19T03:42:44;20.10;91.20
39665;DHT22;26679;50.872;4.332;2023-11-19T03:45:10;20.20;91.20
39665;DHT22;26679;50.872;4.332;2023-11-19T03:47:36;20.20;91.10
39665;DHT22;26679;50.872;4.332;2023-11-19T03:50:02;20.20;91.10
39665;DHT22;26679;50.872;4.332;2023-11-19T03:52:28;20.20;91.00
39665;DHT22;26679;50.872;4.332;2023-11-19T03:54:54;20.20;91.00
39665;DHT22;26679;50.872;4.332;2023-11-19T03:57:20;20.20;91.00
39665;DHT22;26679;50.872;4.332;2023-11-19T03:59:46;20.20;90.90
39665;DHT22;26679;50.872;4.332;2023-11-19T04:02:11;20.20;90.90
39665;DHT22;26679;50.872;4.332;2023-11-19T04:04:37;20.30;90.80
39665;DHT22;26679;50.872;4.332;2023-11-19T04:07:05;20.30;90.80
39665;DHT22;26679;50.872;4.332;2023-11-19T04:09:31;20.30;90.70
39665;DHT22;26679;50.872;4.332;2023-11-19T04:12:00;20.30;90.70
39665;DHT22;26679;50.872;4.332;2023-11-19T04:14:25;20.30;90.60
39665;DHT22;26679;50.872;4.332;2023-11-19T04:16:51;20.30;90.60
39665;DHT22;26679;50.872;4.332;2023-11-19T04:19:17;20.30;90.50
39665;DHT22;26679;50.872;4.332;2023-11-19T04:21:42;20.30;90.50
39665;DHT22;26679;50.872;4.332;2023-11-19T04:24:08;20.40;90.50
39665;DHT22;26679;50.872;4.332;2023-11-19T04:26:34;20.40;90.40
39665;DHT22;26679;50.872;4.332;2023-11-19T04:28:59;20.40;90.30
39665;DHT22;26679;50.872;4.332;2023-11-19T04:31:31;20.40;90.30
39665;DHT22;26679;50.872;4.332;2023-11-19T04:33:57;20.40;90.20
39665;DHT22;26679;50.872;4.332;2023-11-19T04:36:22;20.50;90.20
39665;DHT22;26679;50.872;4.332;2023-11-19T04:38:50;20.50;90.20
39665;DHT22;26679;50.872;4.332;2023-11-19T04:41:15;20.50;90.10
39665;DHT22;26679;50.872;4.332;2023-11-19T04:43:41;20.50;90.10
39665;DHT22;26679;50.872;4.332;2023-11-19T04:46:06;20.50;90.00
39665;DHT22;26679;50.872;4.332;2023-11-19T04:48:32;20.50;90.00
39665;DHT22;26679;50.872;4.332;2023-11-19T04:50:57;20.50;89.90
39665;DHT22;26679;50.872;4.332;2023-11-19T04:53:23;20.50;89.90
39665;DHT22;26679;50.872;4.332;2023-11-19T04:55:48;20.60;89.80
39665;DHT22;26679;50.872;4.332;2023-11-19T04:58:14;20.60;89.70
39665;DHT22;26679;50.872;4.332;2023-11-19T05:00:39;20.50;89.50
39665;DHT22;26679;50.872;4.332;2023-11-19T05:03:05;20.60;89.50
39665;DHT22;26679;50.872;4.332;2023-11-19T05:05:30;20.60;89.50
39665;DHT22;26679;50.872;4.332;2023-11-19T05:07:56;20.60;89.40
39665;DHT22;26679;50.872;4.332;2023-11-19T05:10:22;20.60;89.30
39665;DHT22;26679;50.872;4.332;2023-11-19T05:12:47;20.60;89.30
39665;DHT22;26679;50.872;4.332;2023-11-19T05:15:13;20.60;89.20
39665;DHT22;26679;50.872;4.332;2023-11-19T05:17:39;20.60;89.20
39665;DHT22;26679;50.872;4.332;2023-11-19T05:20:05;20.60;89.10
39665;DHT22;26679;50.872;4.332;2023-11-19T05:22:31;20.60;89.00
39665;DHT22;26679;50.872;4.332;2023-11-19T05:24:57;20.50;89.00
39665;DHT22;26679;50.872;4.332;2023-11-19T05:27:23;20.60;89.00
39665;DHT22;26679;50.872;4.332;2023-11-19T05:29:49;20.60;88.90
39665;DHT22;26679;50.872;4.332;2023-11-19T05:32:14;20.60;88.80
39665;DHT22;26679;50.872;4.332;2023-11-19T05:34:40;20.60;88.80
39665;DHT22;26679;50.872;4.332;2023-11-19T05:37:05;20.60;88.70
39665;DHT22;26679;50.872;4.332;2023-11-19T05:39:31;20.60;88.50
39665;DHT22;26679;50.872;4.332;2023-11-19T05:41:56;20.60;88.50
39665;DHT22;26679;50.872;4.332;2023-11-19T05:44:22;20.60;88.50
39665;DHT22;26679;50.872;4.332;2023-11-19T05:46:47;20.60;88.40
39665;DHT22;26679;50.872;4.332;2023-11-19T05:49:13;20.60;88.30
39665;DHT22;26679;50.872;4.332;2023-11-19T05:51:38;20.70;88.20
39665;DHT22;26679;50.872;4.332;2023-11-19T05:54:05;20.70;88.10
39665;DHT22;26679;50.872;4.332;2023-11-19T05:56:32;20.70;88.00
39665;DHT22;26679;50.872;4.332;2023-11-19T05:58:58;20.70;87.90
39665;DHT22;26679;50.872;4.332;2023-11-19T06:01:25;20.70;87.80
39665;DHT22;26679;50.872;4.332;2023-11-19T06:03:51;20.70;87.70
39665;DHT22;26679;50.872;4.332;2023-11-19T06:06:17;20.70;87.60
39665;DHT22;26679;50.872;4.332;2023-11-19T06:08:43;20.70;87.50
39665;DHT22;26679;50.872;4.332;2023-11-19T06:11:09;20.70;87.50
39665;DHT22;26679;50.872;4.332;2023-11-19T06:13:38;20.70;87.50
39665;DHT22;26679;50.872;4.332;2023-11-19T06:16:03;20.70;87.40
39665;DHT22;26679;50.872;4.332;2023-11-19T06:18:29;20.70;87.30
39665;DHT22;26679;50.872;4.332;2023-11-19T06:20:56;20.70;87.30
39665;DHT22;26679;50.872;4.332;2023-11-19T06:23:22;20.70;87.30
39665;DHT22;26679;50.872;4.332;2023-11-19T06:25:47;20.70;87.20
39665;DHT22;26679;50.872;4.332;2023-11-19T06:28:13;20.70;87.20
39665;DHT22;26679;50.872;4.332;2023-11-19T06:30:38;20.70;87.20
39665;DHT22;26679;50.872;4.332;2023-11-19T06:35:33;20.70;87.00
39665;DHT22;26679;50.872;4.332;2023-11-19T06:38:02;20.70;87.10
39665;DHT22;26679;50.872;4.332;2023-11-19T06:40:28;20.70;86.90
39665;DHT22;26679;50.872;4.332;2023-11-19T06:42:54;20.70;86.80
39665;DHT22;26679;50.872;4.332;2023-11-19T06:45:20;20.70;86.80
39665;DHT22;26679;50.872;4.332;2023-11-19T06:47:45;20.70;86.80
39665;DHT22;26679;50.872;4.332;2023-11-19T06:50:11;20.80;86.80
39665;DHT22;26679;50.872;4.332;2023-11-19T06:52:37;20.70;86.60
39665;DHT22;26679;50.872;4.332;2023-11-19T06:55:03;20.70;86.60
39665;DHT22;26679;50.872;4.332;2023-11-19T06:57:29;20.70;86.50
39665;DHT22;26679;50.872;4.332;2023-11-19T06:59:57;20.70;86.50
39665;DHT22;26679;50.872;4.332;2023-11-19T07:02:22;20.80;86.60
39665;DHT22;26679;50.872;4.332;2023-11-19T07:04:48;20.80;86.50
39665;DHT22;26679;50.872;4.332;2023-11-19T07:07:13;20.80;86.40
39665;DHT22;26679;50.872;4.332;2023-11-19T07:09:40;20.80;86.30
39665;DHT22;26679;50.872;4.332;2023-11-19T07:12:05;20.80;86.30
39665;DHT22;26679;50.872;4.332;2023-11-19T07:14:31;20.80;86.20
39665;DHT22;26679;50.872;4.332;2023-11-19T07:16:57;20.80;86.20
39665;DHT22;26679;50.872;4.332;2023-11-19T07:19:22;20.80;86.10
39665;DHT22;26679;50.872;4.332;2023-11-19T07:21:48;20.80;86.20
39665;DHT22;26679;50.872;4.332;2023-11-19T07:24:13;20.80;86.10
39665;DHT22;26679;50.872;4.332;2023-11-19T07:26:45;20.80;86.10
39665;DHT22;26679;50.872;4.332;2023-11-19T07:29:12;20.80;86.00
39665;DHT22;26679;50.872;4.332;2023-11-19T07:31:38;20.80;86.00
39665;DHT22;26679;50.872;4.332;2023-11-19T07:34:04;20.80;85.90
39665;DHT22;26679;50.872;4.332;2023-11-19T07:36:31;20.80;85.90
39665;DHT22;26679;50.872;4.332;2023-11-19T07:38:57;20.80;85.80
39665;DHT22;26679;50.872;4.332;2023-11-19T07:41:23;20.80;85.80
39665;DHT22;26679;50.872;4.332;2023-11-19T07:43:50;20.90;85.80
39665;DHT22;26679;50.872;4.332;2023-11-19T07:46:17;20.90;85.70
39665;DHT22;26679;50.872;4.332;2023-11-19T07:48:44;20.90;85.70
39665;DHT22;26679;50.872;4.332;2023-11-19T07:51:10;20.90;85.70
39665;DHT22;26679;50.872;4.332;2023-11-19T07:53:36;20.90;85.50
39665;DHT22;26679;50.872;4.332;2023-11-19T07:56:03;20.90;85.50
39665;DHT22;26679;50.872;4.332;2023-11-19T07:58:29;20.90;85.40
39665;DHT22;26679;50.872;4.332;2023-11-19T08:00:54;20.90;85.30
39665;DHT22;26679;50.872;4.332;2023-11-19T08:03:20;20.90;85.20
39665;DHT22;26679;50.872;4.332;2023-11-19T08:05:47;21.00;85.20
39665;DHT22;26679;50.872;4.332;2023-11-19T08:08:13;21.00;85.20
39665;DHT22;26679;50.872;4.332;2023-11-19T08:10:38;21.00;85.00
39665;DHT22;26679;50.872;4.332;2023-11-19T08:13:05;21.00;85.00
39665;DHT22;26679;50.872;4.332;2023-11-19T08:15:31;21.00;84.90
39665;DHT22;26679;50.872;4.332;2023-11-19T08:17:56;21.00;84.80
39665;DHT22;26679;50.872;4.332;2023-11-19T08:20:22;21.00;84.80
39665;DHT22;26679;50.872;4.332;2023-11-19T08:22:48;21.10;84.70
39665;DHT22;26679;50.872;4.332;2023-11-19T08:25:13;21.00;84.60
39665;DHT22;26679;50.872;4.332;2023-11-19T08:27:39;21.00;84.60
39665;DHT22;26679;50.872;4.332;2023-11-19T08:30:05;21.10;84.60
39665;DHT22;26679;50.872;4.332;2023-11-19T08:32:31;21.10;84.50
39665;DHT22;26679;50.872;4.332;2023-11-19T08:34:56;21.10;84.40
39665;DHT22;26679;50.872;4.332;2023-11-19T08:37:22;21.10;84.40
39665;DHT22;26679;50.872;4.332;2023-11-19T08:39:48;21.10;84.30
39665;DHT22;26679;50.872;4.332;2023-11-19T08:42:13;21.00;84.20
39665;DHT22;26679;50.872;4.332;2023-11-19T08:44:39;21.00;84.20
39665;DHT22;26679;50.872;4.332;2023-11-19T08:47:04;21.00;84.30
39665;DHT22;26679;50.872;4.332;2023-11-19T08:49:30;21.00;84.20
39665;DHT22;26679;50.872;4.332;2023-11-19T08:51:55;21.00;84.30
39665;DHT22;26679;50.872;4.332;2023-11-19T08:54:21;21.00;84.30
39665;DHT22;26679;50.872;4.332;2023-11-19T08:56:48;21.00;84.40
39665;DHT22;26679;50.872;4.332;2023-11-19T08:59:13;21.00;84.40
39665;DHT22;26679;50.872;4.332;2023-11-19T09:01:40;21.00;84.40
39665;DHT22;26679;50.872;4.332;2023-11-19T09:04:06;21.30;84.60
39665;DHT22;26679;50.872;4.332;2023-11-19T09:06:31;21.10;84.50
39665;DHT22;26679;50.872;4.332;2023-11-19T09:08:57;21.10;84.40
39665;DHT22;26679;50.872;4.332;2023-11-19T09:11:26;21.10;84.40
39665;DHT22;26679;50.872;4.332;2023-11-19T09:13:52;21.10;84.30
39665;DHT22;26679;50.872;4.332;2023-11-19T09:16:18;21.20;84.40
39665;DHT22;26679;50.872;4.332;2023-11-19T09:18:43;21.20;84.30
39665;DHT22;26679;50.872;4.332;2023-11-19T09:21:10;21.30;84.70
39665;DHT22;26679;50.872;4.332;2023-11-19T09:23:35;21.30;84.10
39665;DHT22;26679;50.872;4.332;2023-11-19T09:26:04;21.30;83.90
39665;DHT22;26679;50.872;4.332;2023-11-19T09:28:30;21.30;84.00
39665;DHT22;26679;50.872;4.332;2023-11-19T09:30:56;21.40;83.90
39665;DHT22;26679;50.872;4.332;2023-11-19T09:33:21;21.40;83.80
39665;DHT22;26679;50.872;4.332;2023-11-19T09:35:47;21.40;83.80
39665;DHT22;26679;50.872;4.332;2023-11-19T09:38:15;21.40;83.70
39665;DHT22;26679;50.872;4.332;2023-11-19T09:40:40;21.40;83.80
39665;DHT22;26679;50.872;4.332;2023-11-19T09:43:06;21.40;83.70
39665;DHT22;26679;50.872;4.332;2023-11-19T09:45:32;21.40;83.70
39665;DHT22;26679;50.872;4.332;2023-11-19T09:48:02;21.40;83.70
39665;DHT22;26679;50.872;4.332;2023-11-19T09:50:27;21.50;83.70
39665;DHT22;26679;50.872;4.332;2023-11-19T09:52:53;21.50;83.60
39665;DHT22;26679;50.872;4.332;2023-11-19T09:55:19;21.60;83.50
39665;DHT22;26679;50.872;4.332;2023-11-19T09:57:45;21.60;83.50
39665;DHT22;26679;50.872;4.332;2023-11-19T10:00:13;21.70;83.40
39665;DHT22;26679;50.872;4.332;2023-11-19T10:02:40;21.70;83.40
39665;DHT22;26679;50.872;4.332;2023-11-19T10:05:07;21.70;83.30
39665;DHT22;26679;50.872;4.332;2023-11-19T10:07:33;21.80;83.30
39665;DHT22;26679;50.872;4.332;2023-11-19T10:10:02;21.80;83.10
39665;DHT22;26679;50.872;4.332;2023-11-19T10:12:31;21.80;83.10
39665;DHT22;26679;50.872;4.332;2023-11-19T10:14:57;21.90;83.00
39665;DHT22;26679;50.872;4.332;2023-11-19T10:17:29;21.90;82.90
39665;DHT22;26679;50.872;4.332;2023-11-19T10:19:57;21.90;82.90
39665;DHT22;26679;50.872;4.332;2023-11-19T10:22:23;22.00;82.90
39665;DHT22;26679;50.872;4.332;2023-11-19T10:24:49;22.00;82.90
39665;DHT22;26679;50.872;4.332;2023-11-19T10:27:15;22.00;83.00
39665;DHT22;26679;50.872;4.332;2023-11-19T10:29:43;22.20;83.00
39665;DHT22;26679;50.872;4.332;2023-11-19T10:32:09;22.60;82.60
39665;DHT22;26679;50.872;4.332;2023-11-19T10:34:35;22.70;82.00
39665;DHT22;26679;50.872;4.332;2023-11-19T10:37:02;22.70;81.90
39665;DHT22;26679;50.872;4.332;2023-11-19T10:42:15;22.40;82.20
39665;DHT22;26679;50.872;4.332;2023-11-19T10:44:41;22.30;82.20
39665;DHT22;26679;50.872;4.332;2023-11-19T10:47:07;22.20;82.30
39665;DHT22;26679;50.872;4.332;2023-11-19T10:49:33;22.10;82.50
39665;DHT22;26679;50.872;4.332;2023-11-19T10:52:00;22.00;82.50
39665;DHT22;26679;50.872;4.332;2023-11-19T10:54:27;22.00;82.60
39665;DHT22;26679;50.872;4.332;2023-11-19T10:56:54;22.10;82.60
39665;DHT22;26679;50.872;4.332;2023-11-19T10:59:21;22.20;82.80
39665;DHT22;26679;50.872;4.332;2023-11-19T11:01:47;22.30;82.90
39665;DHT22;26679;50.872;4.332;2023-11-19T11:04:14;22.50;82.80
39665;DHT22;26679;50.872;4.332;2023-11-19T11:06:42;22.70;82.30
39665;DHT22;26679;50.872;4.332;2023-11-19T11:09:08;22.70;82.30
39665;DHT22;26679;50.872;4.332;2023-11-19T11:11:38;22.60;82.20
39665;DHT22;26679;50.872;4.332;2023-11-19T11:14:04;22.50;82.40
39665;DHT22;26679;50.872;4.332;2023-11-19T11:16:30;22.50;82.60
39665;DHT22;26679;50.872;4.332;2023-11-19T11:18:57;22.30;82.60
39665;DHT22;26679;50.872;4.332;2023-11-19T11:21:23;22.20;82.50
39665;DHT22;26679;50.872;4.332;2023-11-19T11:29:27;21.90;82.80
39665;DHT22;26679;50.872;4.332;2023-11-19T11:39:21;22.10;83.10
39665;DHT22;26679;50.872;4.332;2023-11-19T11:41:47;22.20;83.10
39665;DHT22;26679;50.872;4.332;2023-11-19T11:44:13;22.30;83.30
39665;DHT22;26679;50.872;4.332;2023-11-19T11:49:07;22.50;83.00
39665;DHT22;26679;50.872;4.332;2023-11-19T11:57:06;22.80;82.60
39665;DHT22;26679;50.872;4.332;2023-11-19T12:02:08;23.10;81.60
39665;DHT22;26679;50.872;4.332;2023-11-19T12:04:37;23.20;81.40
39665;DHT22;26679;50.872;4.332;2023-11-19T12:09:31;23.10;81.10
39665;DHT22;26679;50.872;4.332;2023-11-19T12:12:07;23.00;81.20
39665;DHT22;26679;50.872;4.332;2023-11-19T12:20:01;22.80;81.50
39665;DHT22;26679;50.872;4.332;2023-11-19T12:22:27;22.70;82.00
39665;DHT22;26679;50.872;4.332;2023-11-19T12:24:55;22.50;82.00
39665;DHT22;26679;50.872;4.332;2023-11-19T12:27:21;22.40;82.30
39665;DHT22;26679;50.872;4.332;2023-11-19T12:29:51;22.30;82.70
39665;DHT22;26679;50.872;4.332;2023-11-19T12:32:17;22.30;82.70
39665;DHT22;26679;50.872;4.332;2023-11-19T12:34:42;22.20;82.60
39665;DHT22;26679;50.872;4.332;2023-11-19T12:37:09;22.20;82.70
39665;DHT22;26679;50.872;4.332;2023-11-19T12:39:35;22.10;82.90
39665;DHT22;26679;50.872;4.332;2023-11-19T12:42:01;22.00;83.10
39665;DHT22;26679;50.872;4.332;2023-11-19T12:44:26;21.90;82.90
39665;DHT22;26679;50.872;4.332;2023-11-19T12:47:05;21.90;83.10
39665;DHT22;26679;50.872;4.332;2023-11-19T12:49:34;21.90;83.30
39665;DHT22;26679;50.872;4.332;2023-11-19T12:52:00;21.80;83.20
39665;DHT22;26679;50.872;4.332;2023-11-19T12:54:35;21.80;83.40
39665;DHT22;26679;50.872;4.332;2023-11-19T12:57:01;21.80;83.20
39665;DHT22;26679;50.872;4.332;2023-11-19T12:59:26;21.80;82.90
39665;DHT22;26679;50.872;4.332;2023-11-19T13:01:56;21.80;83.10
39665;DHT22;26679;50.872;4.332;2023-11-19T13:04:22;21.70;82.90
39665;DHT22;26679;50.872;4.332;2023-11-19T13:06:47;21.70;83.20
39665;DHT22;26679;50.872;4.332;2023-11-19T13:09:26;21.80;83.10
39665;DHT22;26679;50.872;4.332;2023-11-19T13:11:52;21.70;83.00
39665;DHT22;26679;50.872;4.332;2023-11-19T13:14:18;21.70;83.10
39665;DHT22;26679;50.872;4.332;2023-11-19T13:16:44;21.70;83.20
39665;DHT22;26679;50.872;4.332;2023-11-19T13:19:12;21.70;83.20
39665;DHT22;26679;50.872;4.332;2023-11-19T13:21:37;21.70;83.20
39665;DHT22;26679;50.872;4.332;2023-11-19T13:24:07;21.70;83.10
39665;DHT22;26679;50.872;4.332;2023-11-19T13:26:33;21.80;83.00
39665;DHT22;26679;50.872;4.332;2023-11-19T13:28:58;21.80;82.90
39665;DHT22;26679;50.872;4.332;2023-11-19T13:31:24;21.80;82.80
39665;DHT22;26679;50.872;4.332;2023-11-19T13:33:49;21.80;82.90
39665;DHT22;26679;50.872;4.332;2023-11-19T13:36:15;21.80;82.90
39665;DHT22;26679;50.872;4.332;2023-11-19T13:38:40;21.80;82.90
39665;DHT22;26679;50.872;4.332;2023-11-19T13:41:10;21.80;82.90
39665;DHT22;26679;50.872;4.332;2023-11-19T13:43:36;21.80;82.90
39665;DHT22;26679;50.872;4.332;2023-11-19T13:46:02;21.80;82.90
39665;DHT22;26679;50.872;4.332;2023-11-19T13:48:28;21.80;82.80
39665;DHT22;26679;50.872;4.332;2023-11-19T13:50:54;21.80;82.80
39665;DHT22;26679;50.872;4.332;2023-11-19T13:53:20;21.80;82.70
39665;DHT22;26679;50.872;4.332;2023-11-19T13:55:46;21.80;82.70
39665;DHT22;26679;50.872;4.332;2023-11-19T13:58:12;21.80;82.80
39665;DHT22;26679;50.872;4.332;2023-11-19T14:00:38;21.70;82.70
39665;DHT22;26679;50.872;4.332;2023-11-19T14:03:03;21.70;82.90
39665;DHT22;26679;50.872;4.332;2023-11-19T14:05:29;21.70;82.90
39665;DHT22;26679;50.872;4.332;2023-11-19T14:07:54;21.60;82.90
39665;DHT22;26679;50.872;4.332;2023-11-19T14:10:22;21.60;83.00
39665;DHT22;26679;50.872;4.332;2023-11-19T14:12:47;21.60;83.10
39665;DHT22;26679;50.872;4.332;2023-11-19T14:15:12;21.60;83.10
39665;DHT22;26679;50.872;4.332;2023-11-19T14:17:39;21.50;83.10
39665;DHT22;26679;50.872;4.332;2023-11-19T14:20:05;21.50;83.20
39665;DHT22;26679;50.872;4.332;2023-11-19T14:22:41;21.40;83.30
39665;DHT22;26679;50.872;4.332;2023-11-19T14:25:08;21.40;83.30
39665;DHT22;26679;50.872;4.332;2023-11-19T14:27:38;21.40;83.30
39665;DHT22;26679;50.872;4.332;2023-11-19T14:30:08;21.30;83.30
39665;DHT22;26679;50.872;4.332;2023-11-19T14:32:37;21.30;83.40
39665;DHT22;26679;50.872;4.332;2023-11-19T14:35:03;21.30;83.40
39665;DHT22;26679;50.872;4.332;2023-11-19T14:37:29;21.30;83.60
39665;DHT22;26679;50.872;4.332;2023-11-19T14:39:56;21.30;83.60
39665;DHT22;26679;50.872;4.332;2023-11-19T14:42:23;21.30;83.70
39665;DHT22;26679;50.872;4.332;2023-11-19T14:44:48;21.30;83.70
39665;DHT22;26679;50.872;4.332;2023-11-19T14:47:14;21.30;83.70
39665;DHT22;26679;50.872;4.332;2023-11-19T14:49:39;21.20;83.70
39665;DHT22;26679;50.872;4.332;2023-11-19T14:52:05;21.20;83.80
39665;DHT22;26679;50.872;4.332;2023-11-19T14:54:30;21.20;83.90
39665;DHT22;26679;50.872;4.332;2023-11-19T14:56:56;21.20;83.90
39665;DHT22;26679;50.872;4.332;2023-11-19T14:59:21;21.20;84.00
39665;DHT22;26679;50.872;4.332;2023-11-19T15:01:47;21.10;84.00
39665;DHT22;26679;50.872;4.332;2023-11-19T15:04:13;21.10;84.10
39665;DHT22;26679;50.872;4.332;2023-11-19T15:06:38;21.10;84.10
39665;DHT22;26679;50.872;4.332;2023-11-19T15:09:04;21.10;84.00
39665;DHT22;26679;50.872;4.332;2023-11-19T15:11:30;21.10;84.00
39665;DHT22;26679;50.872;4.332;2023-11-19T15:13:55;21.10;84.00
39665;DHT22;26679;50.872;4.332;2023-11-19T15:16:21;21.10;84.00
39665;DHT22;26679;50.872;4.332;2023-11-19T15:18:56;21.10;84.00
39665;DHT22;26679;50.872;4.332;2023-11-19T15:21:25;21.10;84.00
39665;DHT22;26679;50.872;4.332;2023-11-19T15:23:50;21.10;84.00
39665;DHT22;26679;50.872;4.332;2023-11-19T15:26:17;21.10;84.00
39665;DHT22;26679;50.872;4.332;2023-11-19T15:28:43;21.10;83.90
39665;DHT22;26679;50.872;4.332;2023-11-19T15:31:08;21.10;84.50
39665;DHT22;26679;50.872;4.332;2023-11-19T15:33:35;21.10;83.90
39665;DHT22;26679;50.872;4.332;2023-11-19T15:36:00;21.10;83.90
39665;DHT22;26679;50.872;4.332;2023-11-19T15:38:27;21.10;83.90
39665;DHT22;26679;50.872;4.332;2023-11-19T15:40:53;21.00;83.80
39665;DHT22;26679;50.872;4.332;2023-11-19T15:43:18;21.00;83.80
39665;DHT22;26679;50.872;4.332;2023-11-19T15:45:45;21.00;83.80
39665;DHT22;26679;50.872;4.332;2023-11-19T15:48:10;21.00;83.80
39665;DHT22;26679;50.872;4.332;2023-11-19T15:50:38;21.00;83.70
39665;DHT22;26679;50.872;4.332;2023-11-19T15:53:04;21.00;83.70
39665;DHT22;26679;50.872;4.332;2023-11-19T15:55:30;20.90;83.80
39665;DHT22;26679;50.872;4.332;2023-11-19T15:57:55;20.90;83.90
39665;DHT22;26679;50.872;4.332;2023-11-19T16:00:21;20.90;83.80
39665;DHT22;26679;50.872;4.332;2023-11-19T16:02:47;20.80;83.70